Jauru, Brazil
Current Conditions -  °F | °C
As of 11:00 AM on Thursday 30 Oct 2014 (Local Time) from SLSI Reporting Station
Scattered Clouds Scattered Clouds  
Wind Chill: 82°   Ceiling: Unl
Heat Index: 88°   Visibility: 6mi
Dew Point: 73°   Wind: 14mph
Humidity: 74%   Direction: 330°NNW
Pressure: 29.83"   Gusts: NA
Location:  15.34°S, 58.88°W
Report Text: SLSI 301400Z 33012KT 9999 SCT017 28/23 Q1010
Loading
Personal Weather Stations






























Interactive Weather Map
Tropical Storm Tracking
New forecast layout! Learn more

10-Day Weather Forecast

Advertisements
Track Severe Weather on mobile